sensor_id;sensor_type;location;lat;lon;timestamp;P1;durP1;ratioP1;P2;durP2;ratioP2
29878;SDS011;16752;53.364;-1.488;2022-11-12T14:10:04;10.70;;;7.78;;
29878;SDS011;16752;53.364;-1.488;2022-11-12T14:21:36;13.05;;;8.57;;
29878;SDS011;16752;53.364;-1.488;2022-11-12T14:27:36;10.55;;;9.02;;
29878;SDS011;16752;53.364;-1.488;2022-11-12T14:39:35;14.95;;;10.70;;
29878;SDS011;16752;53.364;-1.488;2022-11-12T14:54:52;16.05;;;12.98;;
29878;SDS011;16752;53.364;-1.488;2022-11-12T15:07:31;14.75;;;12.55;;
29878;SDS011;16752;53.364;-1.488;2022-11-12T15:14:43;17.98;;;14.27;;
29878;SDS011;16752;53.364;-1.488;2022-11-12T15:20:21;19.75;;;13.15;;
29878;SDS011;16752;53.364;-1.488;2022-11-12T15:26:36;17.98;;;13.10;;
29878;SDS011;16752;53.364;-1.488;2022-11-12T15:29:38;29.48;;;20.63;;
29878;SDS011;16752;53.364;-1.488;2022-11-12T15:37:12;17.05;;;13.25;;
29878;SDS011;16752;53.364;-1.488;2022-11-12T17:34:15;48.25;;;31.92;;
29878;SDS011;16752;53.364;-1.488;2022-11-12T17:41:24;50.35;;;30.55;;
29878;SDS011;16752;53.364;-1.488;2022-11-12T17:47:14;50.50;;;34.10;;
29878;SDS011;16752;53.364;-1.488;2022-11-12T17:55:13;51.22;;;34.25;;
29878;SDS011;16752;53.364;-1.488;2022-11-12T18:17:57;59.85;;;37.03;;
29878;SDS011;16752;53.364;-1.488;2022-11-12T18:49:06;54.30;;;34.63;;
29878;SDS011;16752;53.364;-1.488;2022-11-12T18:51:49;49.42;;;34.67;;
29878;SDS011;16752;53.364;-1.488;2022-11-12T20:20:39;75.75;;;47.13;;
29878;SDS011;16752;53.364;-1.488;2022-11-12T20:23:14;73.90;;;48.45;;
29878;SDS011;16752;53.364;-1.488;2022-11-12T20:26:07;70.15;;;43.15;;
29878;SDS011;16752;53.364;-1.488;2022-11-12T20:28:35;69.22;;;44.47;;
29878;SDS011;16752;53.364;-1.488;2022-11-12T20:31:11;66.82;;;42.20;;
29878;SDS011;16752;53.364;-1.488;2022-11-12T20:33:44;72.50;;;44.42;;
29878;SDS011;16752;53.364;-1.488;2022-11-12T20:36:27;67.70;;;42.97;;
29878;SDS011;16752;53.364;-1.488;2022-11-12T20:38:53;68.22;;;44.83;;
29878;SDS011;16752;53.364;-1.488;2022-11-12T20:41:26;82.60;;;47.28;;
29878;SDS011;16752;53.364;-1.488;2022-11-12T20:43:54;81.90;;;47.17;;
29878;SDS011;16752;53.364;-1.488;2022-11-12T20:46:22;89.47;;;48.40;;
29878;SDS011;16752;53.364;-1.488;2022-11-12T20:48:48;74.50;;;45.75;;
29878;SDS011;16752;53.364;-1.488;2022-11-12T20:51:14;73.80;;;45.80;;
29878;SDS011;16752;53.364;-1.488;2022-11-12T20:53:44;70.82;;;42.50;;
29878;SDS011;16752;53.364;-1.488;2022-11-12T20:56:12;66.35;;;43.40;;
29878;SDS011;16752;53.364;-1.488;2022-11-12T20:58:39;65.47;;;42.58;;
29878;SDS011;16752;53.364;-1.488;2022-11-12T21:01:06;70.22;;;42.65;;
29878;SDS011;16752;53.364;-1.488;2022-11-12T21:03:37;64.47;;;41.17;;
29878;SDS011;16752;53.364;-1.488;2022-11-12T21:06:04;64.97;;;38.38;;
29878;SDS011;16752;53.364;-1.488;2022-11-12T21:08:32;62.23;;;38.47;;
29878;SDS011;16752;53.364;-1.488;2022-11-12T21:10:59;57.08;;;37.60;;
29878;SDS011;16752;53.364;-1.488;2022-11-12T21:13:28;54.20;;;35.72;;
29878;SDS011;16752;53.364;-1.488;2022-11-12T21:15:59;56.35;;;36.75;;
29878;SDS011;16752;53.364;-1.488;2022-11-12T21:18:33;58.58;;;37.40;;
29878;SDS011;16752;53.364;-1.488;2022-11-12T21:21:03;56.58;;;37.15;;
29878;SDS011;16752;53.364;-1.488;2022-11-12T21:23:34;52.42;;;35.47;;
29878;SDS011;16752;53.364;-1.488;2022-11-12T21:26:03;66.40;;;40.17;;
29878;SDS011;16752;53.364;-1.488;2022-11-12T21:28:36;62.60;;;39.25;;
29878;SDS011;16752;53.364;-1.488;2022-11-12T21:31:12;60.38;;;35.67;;
29878;SDS011;16752;53.364;-1.488;2022-11-12T21:33:40;52.28;;;34.80;;
29878;SDS011;16752;53.364;-1.488;2022-11-12T21:36:06;54.65;;;35.00;;
29878;SDS011;16752;53.364;-1.488;2022-11-12T21:38:32;49.30;;;32.35;;
29878;SDS011;16752;53.364;-1.488;2022-11-12T21:41:05;50.50;;;33.13;;
29878;SDS011;16752;53.364;-1.488;2022-11-12T21:43:37;49.80;;;32.63;;
29878;SDS011;16752;53.364;-1.488;2022-11-12T21:46:17;45.35;;;30.27;;
29878;SDS011;16752;53.364;-1.488;2022-11-12T21:48:44;43.35;;;30.48;;
29878;SDS011;16752;53.364;-1.488;2022-11-12T21:51:14;42.55;;;28.17;;
29878;SDS011;16752;53.364;-1.488;2022-11-12T21:53:44;47.92;;;31.10;;
29878;SDS011;16752;53.364;-1.488;2022-11-12T21:58:36;46.67;;;29.08;;
29878;SDS011;16752;53.364;-1.488;2022-11-12T22:03:33;41.70;;;29.13;;
29878;SDS011;16752;53.364;-1.488;2022-11-12T22:06:26;45.70;;;29.52;;
29878;SDS011;16752;53.364;-1.488;2022-11-12T22:08:54;45.75;;;29.33;;
29878;SDS011;16752;53.364;-1.488;2022-11-12T22:11:29;42.47;;;27.88;;
29878;SDS011;16752;53.364;-1.488;2022-11-12T22:14:28;40.72;;;27.70;;
29878;SDS011;16752;53.364;-1.488;2022-11-12T22:17:00;41.03;;;27.98;;
29878;SDS011;16752;53.364;-1.488;2022-11-12T22:19:34;38.58;;;27.10;;
29878;SDS011;16752;53.364;-1.488;2022-11-12T22:23:28;35.55;;;24.88;;
29878;SDS011;16752;53.364;-1.488;2022-11-12T22:26:59;43.60;;;26.23;;
29878;SDS011;16752;53.364;-1.488;2022-11-12T22:30:24;35.97;;;25.50;;
29878;SDS011;16752;53.364;-1.488;2022-11-12T22:32:52;42.23;;;28.07;;
29878;SDS011;16752;53.364;-1.488;2022-11-12T22:35:28;37.38;;;25.73;;
29878;SDS011;16752;53.364;-1.488;2022-11-12T22:38:00;47.63;;;27.38;;
29878;SDS011;16752;53.364;-1.488;2022-11-12T22:40:28;42.85;;;27.58;;
29878;SDS011;16752;53.364;-1.488;2022-11-12T22:43:28;43.85;;;28.58;;
29878;SDS011;16752;53.364;-1.488;2022-11-12T22:46:15;41.95;;;27.73;;
29878;SDS011;16752;53.364;-1.488;2022-11-12T22:48:52;45.20;;;31.08;;
29878;SDS011;16752;53.364;-1.488;2022-11-12T22:51:22;42.47;;;29.13;;
29878;SDS011;16752;53.364;-1.488;2022-11-12T22:53:57;48.63;;;29.20;;
29878;SDS011;16752;53.364;-1.488;2022-11-12T22:56:27;43.50;;;29.27;;
29878;SDS011;16752;53.364;-1.488;2022-11-12T22:58:54;44.88;;;30.35;;
29878;SDS011;16752;53.364;-1.488;2022-11-12T23:01:26;40.88;;;28.60;;
29878;SDS011;16752;53.364;-1.488;2022-11-12T23:03:57;42.08;;;28.75;;
29878;SDS011;16752;53.364;-1.488;2022-11-12T23:06:27;39.50;;;28.27;;
29878;SDS011;16752;53.364;-1.488;2022-11-12T23:08:54;42.45;;;29.75;;
29878;SDS011;16752;53.364;-1.488;2022-11-12T23:11:24;40.88;;;27.77;;
29878;SDS011;16752;53.364;-1.488;2022-11-12T23:13:51;43.47;;;26.35;;
29878;SDS011;16752;53.364;-1.488;2022-11-12T23:16:21;46.13;;;28.70;;
29878;SDS011;16752;53.364;-1.488;2022-11-12T23:18:49;42.15;;;27.52;;
29878;SDS011;16752;53.364;-1.488;2022-11-12T23:21:22;42.05;;;28.30;;
29878;SDS011;16752;53.364;-1.488;2022-11-12T23:23:54;40.38;;;26.67;;
29878;SDS011;16752;53.364;-1.488;2022-11-12T23:26:23;41.20;;;27.27;;
29878;SDS011;16752;53.364;-1.488;2022-11-12T23:28:49;38.53;;;27.30;;
29878;SDS011;16752;53.364;-1.488;2022-11-12T23:31:17;40.08;;;26.00;;
29878;SDS011;16752;53.364;-1.488;2022-11-12T23:34:01;42.13;;;25.83;;
29878;SDS011;16752;53.364;-1.488;2022-11-12T23:36:28;39.47;;;26.27;;
29878;SDS011;16752;53.364;-1.488;2022-11-12T23:38:57;40.83;;;25.60;;
29878;SDS011;16752;53.364;-1.488;2022-11-12T23:41:32;35.78;;;23.75;;
29878;SDS011;16752;53.364;-1.488;2022-11-12T23:44:07;33.70;;;23.60;;
29878;SDS011;16752;53.364;-1.488;2022-11-12T23:46:33;37.85;;;26.42;;
29878;SDS011;16752;53.364;-1.488;2022-11-12T23:49:04;37.40;;;24.13;;
29878;SDS011;16752;53.364;-1.488;2022-11-12T23:51:42;39.85;;;23.73;;
29878;SDS011;16752;53.364;-1.488;2022-11-12T23:54:08;37.55;;;24.33;;
29878;SDS011;16752;53.364;-1.488;2022-11-12T23:56:34;30.75;;;22.25;;
29878;SDS011;16752;53.364;-1.488;2022-11-12T23:59:02;34.95;;;23.25;;
